createdAt,value
2022-09-22T00:01:36.168Z,9.90
2022-09-22T00:04:09.835Z,10.00
2022-09-22T00:06:42.284Z,10.00
2022-09-22T00:09:12.770Z,10.00
2022-09-22T00:11:47.462Z,10.00
2022-09-22T00:14:34.469Z,10.00
2022-09-22T00:17:02.035Z,10.00
2022-09-22T00:19:32.594Z,10.00
2022-09-22T00:22:02.569Z,10.00
2022-09-22T00:24:30.447Z,10.00
2022-09-22T00:26:58.781Z,9.90
2022-09-22T00:29:27.697Z,10.00
2022-09-22T00:31:56.312Z,10.00
2022-09-22T00:34:25.681Z,10.00
2022-09-22T00:36:53.075Z,9.90
2022-09-22T00:39:20.481Z,10.00
2022-09-22T00:41:51.332Z,10.00
2022-09-22T00:44:21.646Z,10.00
2022-09-22T00:47:26.722Z,10.00
2022-09-22T00:50:03.577Z,10.00
2022-09-22T00:52:59.651Z,10.00
2022-09-22T00:55:33.486Z,9.90
2022-09-22T00:58:02.682Z,9.80
2022-09-22T01:00:29.784Z,9.80
2022-09-22T01:02:59.097Z,9.70
2022-09-22T01:05:29.306Z,9.70
2022-09-22T01:07:59.087Z,9.70
2022-09-22T01:10:26.351Z,9.60
2022-09-22T01:13:14.161Z,9.60
2022-09-22T01:15:48.448Z,9.60
2022-09-22T01:18:30.274Z,9.60
2022-09-22T01:21:36.530Z,9.50
2022-09-22T01:24:25.825Z,9.30
2022-09-22T01:27:30.619Z,9.20
2022-09-22T01:30:31.238Z,9.10
2022-09-22T01:33:06.917Z,9.00
2022-09-22T01:35:48.601Z,8.90
2022-09-22T01:38:36.006Z,8.80
2022-09-22T01:41:37.762Z,8.60
2022-09-22T01:44:13.159Z,8.60
2022-09-22T01:46:51.747Z,8.50
2022-09-22T01:49:23.331Z,8.40
2022-09-22T01:51:57.301Z,8.30
2022-09-22T01:54:44.541Z,8.30
2022-09-22T01:57:23.438Z,8.20
2022-09-22T01:59:57.537Z,8.10
2022-09-22T02:02:40.838Z,8.10
2022-09-22T02:05:15.456Z,8.00
2022-09-22T02:07:48.459Z,7.90
2022-09-22T02:10:22.907Z,7.90
2022-09-22T02:12:52.526Z,7.90
2022-09-22T02:15:22.517Z,7.80
2022-09-22T02:17:53.547Z,7.80
2022-09-22T02:20:21.099Z,7.80
2022-09-22T02:22:48.171Z,7.80
2022-09-22T02:25:15.395Z,7.80
2022-09-22T02:27:43.979Z,7.70
2022-09-22T02:30:12.301Z,7.70
2022-09-22T02:32:46.083Z,7.60
2022-09-22T02:35:14.134Z,7.60
2022-09-22T02:37:44.143Z,7.60
2022-09-22T02:40:20.451Z,7.60
2022-09-22T02:43:08.039Z,7.50
2022-09-22T02:46:11.787Z,7.50
2022-09-22T02:48:48.463Z,7.50
2022-09-22T02:51:16.331Z,7.40
2022-09-22T02:53:46.469Z,7.50
2022-09-22T02:56:13.581Z,7.40
2022-09-22T02:58:40.854Z,7.50
2022-09-22T03:01:10.895Z,7.40
2022-09-22T03:03:40.761Z,7.40
2022-09-22T03:06:07.987Z,7.30
2022-09-22T03:08:35.555Z,7.30
2022-09-22T03:11:02.656Z,7.20
2022-09-22T03:13:29.807Z,7.20
2022-09-22T03:15:57.357Z,7.20
2022-09-22T03:18:24.456Z,7.20
2022-09-22T03:20:51.655Z,7.20
2022-09-22T03:23:21.312Z,7.20
2022-09-22T03:25:48.382Z,7.20
2022-09-22T03:28:18.219Z,7.20
2022-09-22T03:30:48.419Z,7.20
2022-09-22T03:33:15.538Z,7.20
2022-09-22T03:35:42.703Z,7.20
2022-09-22T03:38:12.723Z,7.10
2022-09-22T03:40:39.749Z,7.20
2022-09-22T03:43:13.055Z,7.10
2022-09-22T03:45:43.731Z,7.10
2022-09-22T03:48:11.294Z,7.10
2022-09-22T03:50:40.760Z,7.00
2022-09-22T03:53:10.823Z,7.00
2022-09-22T03:55:37.818Z,7.00
2022-09-22T03:58:04.790Z,7.00
2022-09-22T04:00:32.349Z,6.90
2022-09-22T04:03:01.930Z,6.90
2022-09-22T04:05:28.984Z,6.90
2022-09-22T04:07:58.519Z,6.90
2022-09-22T04:10:27.681Z,6.90
2022-09-22T04:12:57.185Z,6.80
2022-09-22T04:15:24.574Z,6.80
2022-09-22T04:17:54.167Z,6.80
2022-09-22T04:20:23.498Z,6.80
2022-09-22T04:22:50.931Z,6.70
2022-09-22T04:25:20.441Z,6.70
2022-09-22T04:27:47.864Z,6.70
2022-09-22T04:30:15.349Z,6.80
2022-09-22T04:32:45.106Z,6.80
2022-09-22T04:35:12.274Z,6.80
2022-09-22T04:37:39.854Z,6.80
2022-09-22T04:40:07.441Z,6.80
2022-09-22T04:42:34.593Z,6.80
2022-09-22T04:45:04.366Z,6.80
2022-09-22T04:47:31.600Z,6.80
2022-09-22T04:49:59.182Z,6.80
2022-09-22T04:52:26.968Z,6.90
2022-09-22T04:54:54.606Z,7.10
2022-09-22T04:57:21.811Z,7.20
2022-09-22T04:59:49.267Z,7.30
2022-09-22T05:02:16.361Z,7.40
2022-09-22T05:04:43.585Z,7.40
2022-09-22T05:07:11.245Z,7.40
2022-09-22T05:09:38.328Z,7.40
2022-09-22T05:12:05.678Z,7.50
2022-09-22T05:14:33.336Z,8.20
2022-09-22T05:17:00.409Z,9.30
2022-09-22T05:19:27.586Z,9.80
2022-09-22T05:21:55.004Z,9.80
2022-09-22T05:24:22.038Z,9.60
2022-09-22T05:26:49.252Z,9.40
2022-09-22T05:29:16.668Z,9.40
2022-09-22T05:31:44.317Z,9.30
2022-09-22T05:34:13.980Z,9.10
2022-09-22T05:36:42.481Z,9.00
2022-09-22T05:39:09.928Z,8.90
2022-09-22T05:41:37.105Z,9.00
2022-09-22T05:44:05.919Z,9.30
2022-09-22T05:46:33.072Z,9.90
2022-09-22T05:49:00.302Z,11.80
2022-09-22T05:51:27.676Z,14.40
2022-09-22T05:53:54.830Z,16.10
2022-09-22T05:56:21.868Z,16.70
2022-09-22T05:58:52.054Z,16.60
2022-09-22T06:01:19.357Z,15.80
2022-09-22T06:03:46.648Z,15.10
2022-09-22T06:06:14.166Z,14.50
2022-09-22T06:08:45.103Z,14.30
2022-09-22T06:11:15.930Z,14.30
2022-09-22T06:13:45.278Z,14.60
2022-09-22T06:16:12.738Z,14.40
2022-09-22T06:18:44.995Z,14.60
2022-09-22T06:21:12.150Z,14.90
2022-09-22T06:23:42.986Z,16.80
2022-09-22T06:26:11.017Z,18.60
2022-09-22T06:28:38.162Z,21.60
2022-09-22T06:31:05.627Z,23.20
2022-09-22T06:33:34.109Z,24.50
2022-09-22T06:36:06.635Z,26.70
2022-09-22T06:38:34.074Z,27.70
2022-09-22T06:41:01.284Z,27.20
2022-09-22T06:43:28.933Z,27.70
2022-09-22T06:45:59.743Z,28.70
2022-09-22T06:48:27.028Z,28.90
2022-09-22T06:50:54.697Z,28.80
2022-09-22T06:53:27.238Z,27.60
2022-09-22T06:55:55.110Z,25.80
2022-09-22T06:58:25.185Z,24.10
2022-09-22T07:00:52.842Z,23.80
2022-09-22T07:03:24.568Z,27.30
2022-09-22T07:06:00.198Z,31.30
2022-09-22T07:08:31.254Z,34.30
2022-09-22T07:11:03.216Z,35.00
2022-09-22T07:13:32.936Z,32.00
2022-09-22T07:16:05.123Z,30.90
2022-09-22T07:18:32.288Z,28.80
2022-09-22T07:21:10.762Z,26.10
2022-09-22T07:23:38.508Z,24.00
2022-09-22T07:26:07.754Z,22.80
2022-09-22T07:28:38.150Z,21.80
2022-09-22T07:31:11.578Z,24.70
2022-09-22T07:33:41.156Z,28.00
2022-09-22T07:36:17.751Z,26.50
2022-09-22T07:38:51.784Z,28.20
2022-09-22T07:41:27.590Z,28.40
2022-09-22T07:43:58.834Z,28.50
2022-09-22T07:46:28.402Z,26.70
2022-09-22T07:48:55.566Z,24.30
2022-09-22T07:51:25.231Z,22.60
2022-09-22T07:53:54.761Z,22.70
2022-09-22T07:56:24.072Z,22.20
2022-09-22T07:58:53.080Z,21.10
2022-09-22T08:01:25.779Z,20.40
2022-09-22T08:03:53.063Z,19.80
2022-09-22T08:06:23.745Z,19.40
2022-09-22T08:08:56.227Z,19.40
2022-09-22T08:11:26.225Z,19.20
2022-09-22T08:13:56.380Z,19.60
2022-09-22T08:16:28.484Z,23.90
2022-09-22T08:19:01.096Z,24.40
2022-09-22T08:21:32.620Z,23.00
2022-09-22T08:24:02.844Z,26.90
2022-09-22T08:26:30.333Z,25.80
2022-09-22T08:28:57.730Z,24.00
2022-09-22T08:31:27.668Z,22.50
2022-09-22T08:33:55.885Z,21.50
2022-09-22T08:36:26.987Z,20.50
2022-09-22T08:38:59.707Z,19.60
2022-09-22T08:41:34.722Z,18.80
2022-09-22T08:44:12.840Z,18.50
2022-09-22T08:46:41.846Z,18.30
2022-09-22T08:49:32.664Z,19.10
2022-09-22T08:52:12.882Z,20.20
2022-09-22T08:54:40.415Z,25.10
2022-09-22T08:57:27.280Z,30.70
2022-09-22T09:00:02.240Z,29.20
2022-09-22T09:03:00.170Z,29.40
2022-09-22T09:05:30.698Z,26.80
2022-09-22T09:08:01.911Z,24.50
2022-09-22T09:10:53.092Z,22.50
2022-09-22T09:14:00.173Z,21.20
2022-09-22T09:16:59.009Z,21.10
2022-09-22T09:19:34.983Z,24.10
2022-09-22T09:22:32.397Z,23.50
2022-09-22T09:25:35.473Z,27.80
2022-09-22T09:28:06.629Z,32.70
2022-09-22T09:30:45.451Z,34.60
2022-09-22T09:33:25.796Z,32.70
2022-09-22T09:35:56.029Z,33.70
2022-09-22T09:38:40.941Z,34.80
2022-09-22T09:41:23.932Z,36.30
2022-09-22T09:43:53.279Z,33.60
2022-09-22T09:46:29.010Z,30.20
2022-09-22T09:49:13.485Z,26.70
2022-09-22T09:51:45.796Z,24.00
2022-09-22T09:54:23.073Z,23.80
2022-09-22T09:57:08.636Z,27.10
2022-09-22T09:59:40.308Z,30.40
2022-09-22T10:02:15.267Z,32.70
2022-09-22T10:04:53.061Z,33.20
2022-09-22T10:07:26.676Z,33.60
2022-09-22T10:10:16.320Z,32.50
2022-09-22T10:12:43.344Z,29.50
2022-09-22T10:15:23.605Z,26.90
2022-09-22T10:17:52.963Z,24.80
2022-09-22T10:20:24.401Z,23.00
2022-09-22T10:22:51.859Z,22.60
2022-09-22T10:25:21.716Z,23.60
2022-09-22T10:28:16.057Z,23.80
2022-09-22T10:30:43.844Z,26.30
2022-09-22T10:33:18.626Z,28.50
2022-09-22T10:36:09.297Z,30.20
2022-09-22T10:38:43.547Z,31.70
2022-09-22T10:41:20.049Z,32.50
2022-09-22T10:43:53.245Z,32.50
2022-09-22T10:46:26.444Z,32.50
2022-09-22T10:49:01.547Z,32.10
2022-09-22T10:52:00.054Z,32.20
2022-09-22T10:54:36.734Z,32.30
2022-09-22T10:57:07.375Z,31.90
2022-09-22T11:00:03.766Z,32.10
2022-09-22T11:03:08.271Z,32.50
2022-09-22T11:05:43.565Z,32.70
2022-09-22T11:08:13.769Z,30.70
2022-09-22T11:10:41.023Z,30.30
2022-09-22T11:13:29.011Z,30.50
2022-09-22T11:15:56.278Z,29.70
2022-09-22T11:18:45.054Z,28.60
2022-09-22T11:21:49.571Z,28.10
2022-09-22T11:24:22.431Z,27.90
2022-09-22T11:26:55.469Z,27.00
2022-09-22T11:29:40.489Z,25.50
2022-09-22T11:32:13.571Z,24.10
2022-09-22T11:34:46.179Z,22.70
2022-09-22T11:37:27.751Z,21.90
2022-09-22T11:40:04.427Z,21.00
2022-09-22T11:43:07.825Z,20.50
2022-09-22T11:45:56.489Z,20.00
2022-09-22T11:48:42.935Z,19.50
2022-09-22T11:51:14.560Z,18.90
2022-09-22T11:54:00.052Z,18.40
2022-09-22T11:56:49.884Z,18.00
2022-09-22T11:59:32.934Z,17.70
2022-09-22T12:02:10.738Z,17.50
2022-09-22T12:04:52.644Z,17.20
2022-09-22T12:07:29.715Z,17.00
2022-09-22T12:10:02.981Z,17.00
2022-09-22T12:12:32.114Z,17.10
2022-09-22T12:15:18.400Z,17.10
2022-09-22T12:18:18.685Z,16.80
2022-09-22T12:20:58.004Z,16.50
2022-09-22T12:23:28.320Z,16.40
2022-09-22T12:26:04.477Z,16.30
2022-09-22T12:28:39.758Z,16.00
2022-09-22T12:31:10.086Z,15.90
2022-09-22T12:33:39.076Z,15.80
2022-09-22T12:36:06.980Z,15.80
2022-09-22T12:38:34.659Z,15.80
2022-09-22T12:41:07.120Z,15.60
2022-09-22T12:43:35.695Z,15.60
2022-09-22T12:46:13.258Z,15.60
2022-09-22T12:48:44.184Z,15.40
2022-09-22T12:51:26.600Z,15.50
2022-09-22T12:54:22.735Z,15.40
2022-09-22T12:57:03.339Z,15.50
2022-09-22T12:59:39.186Z,15.40
2022-09-22T13:02:15.576Z,15.50
2022-09-22T13:05:02.604Z,15.50
2022-09-22T13:07:45.638Z,15.40
2022-09-22T13:10:21.683Z,15.30
2022-09-22T13:13:04.478Z,15.30
2022-09-22T13:15:51.478Z,15.30
2022-09-22T13:18:34.025Z,15.30
2022-09-22T13:21:03.914Z,15.30
2022-09-22T13:23:31.418Z,15.40
2022-09-22T13:26:12.101Z,15.50
2022-09-22T13:28:39.552Z,15.60
2022-09-22T13:31:17.662Z,15.70
2022-09-22T13:33:45.469Z,15.70
2022-09-22T13:36:16.987Z,15.70
2022-09-22T13:38:50.594Z,15.70
2022-09-22T13:41:21.901Z,15.70
2022-09-22T13:43:53.461Z,15.90
2022-09-22T13:46:27.626Z,15.90
2022-09-22T13:48:58.469Z,15.90
2022-09-22T13:51:26.289Z,16.00
2022-09-22T13:53:55.844Z,15.90
2022-09-22T13:56:26.527Z,15.70
2022-09-22T13:59:00.930Z,15.60
2022-09-22T14:01:33.462Z,15.50
2022-09-22T14:04:01.053Z,15.50
2022-09-22T14:06:32.604Z,15.50
2022-09-22T14:09:00.592Z,15.40
2022-09-22T14:11:31.686Z,15.40
2022-09-22T14:14:01.739Z,15.30
2022-09-22T14:16:32.034Z,15.30
2022-09-22T14:19:18.510Z,15.20
2022-09-22T14:21:52.824Z,15.10
2022-09-22T14:24:20.116Z,15.10
2022-09-22T14:26:58.969Z,15.00
2022-09-22T14:29:37.168Z,15.00
2022-09-22T14:32:25.642Z,14.90
2022-09-22T14:34:57.322Z,14.80
2022-09-22T14:37:43.134Z,14.80
2022-09-22T14:40:19.382Z,14.90
2022-09-22T14:43:01.310Z,14.70
2022-09-22T14:45:28.514Z,14.80
2022-09-22T14:48:26.974Z,14.80
2022-09-22T14:51:06.319Z,14.70
2022-09-22T14:53:46.644Z,14.70
2022-09-22T14:56:20.956Z,14.70
2022-09-22T14:58:56.457Z,14.60
2022-09-22T15:01:32.098Z,14.50
2022-09-22T15:04:05.870Z,14.40
2022-09-22T15:06:38.666Z,14.30
2022-09-22T15:09:07.989Z,14.20
2022-09-22T15:11:53.869Z,14.00
2022-09-22T15:14:44.423Z,13.90
2022-09-22T15:17:33.466Z,13.80
2022-09-22T15:20:01.071Z,13.70
2022-09-22T15:22:28.248Z,13.60
2022-09-22T15:24:56.926Z,13.60
2022-09-22T15:27:26.629Z,13.50
2022-09-22T15:29:53.698Z,13.50
2022-09-22T15:32:23.227Z,13.50
2022-09-22T15:34:56.889Z,13.50
2022-09-22T15:37:24.031Z,13.60
2022-09-22T15:39:51.428Z,13.60
2022-09-22T15:42:21.161Z,13.70
2022-09-22T15:44:50.484Z,13.70
2022-09-22T15:47:18.239Z,13.80
2022-09-22T15:49:45.391Z,13.80
2022-09-22T15:52:12.423Z,13.80
2022-09-22T15:54:39.808Z,13.80
2022-09-22T15:57:07.001Z,13.70
2022-09-22T15:59:34.288Z,13.50
2022-09-22T16:02:01.798Z,13.40
2022-09-22T16:04:29.306Z,13.20
2022-09-22T16:06:59.694Z,13.10
2022-09-22T16:09:27.124Z,13.00
2022-09-22T16:11:54.284Z,12.90
2022-09-22T16:14:21.526Z,12.80
2022-09-22T16:16:49.640Z,12.60
2022-09-22T16:19:16.695Z,12.60
2022-09-22T16:21:54.175Z,12.60
2022-09-22T16:24:24.773Z,12.60
2022-09-22T16:26:51.915Z,12.50
2022-09-22T16:29:19.206Z,12.50
2022-09-22T16:31:46.941Z,12.40
2022-09-22T16:34:16.474Z,12.30
2022-09-22T16:36:43.538Z,12.30
2022-09-22T16:39:10.874Z,12.30
2022-09-22T16:41:45.102Z,12.20
2022-09-22T16:44:18.482Z,12.20
2022-09-22T16:46:48.272Z,12.10
2022-09-22T16:49:20.297Z,12.00
2022-09-22T16:51:48.902Z,11.80
2022-09-22T16:54:18.279Z,11.70
2022-09-22T16:56:49.351Z,11.60
2022-09-22T16:59:18.894Z,11.50
2022-09-22T17:01:47.009Z,11.30
2022-09-22T17:04:16.309Z,11.20
2022-09-22T17:06:44.020Z,11.10
2022-09-22T17:09:12.747Z,11.00
2022-09-22T17:11:42.624Z,10.90
2022-09-22T17:14:20.824Z,10.80
2022-09-22T17:16:49.945Z,10.60
2022-09-22T17:19:19.604Z,10.50
2022-09-22T17:21:49.012Z,10.40
2022-09-22T17:24:16.364Z,10.30
2022-09-22T17:26:46.838Z,10.20
2022-09-22T17:29:19.953Z,10.10
2022-09-22T17:31:47.489Z,10.00
2022-09-22T17:34:14.918Z,9.90
2022-09-22T17:36:47.289Z,9.80
2022-09-22T17:39:16.795Z,9.80
2022-09-22T17:41:46.570Z,9.70
2022-09-22T17:44:15.391Z,9.60
2022-09-22T17:46:42.716Z,9.60
2022-09-22T17:49:10.126Z,9.50
2022-09-22T17:51:50.967Z,9.40
2022-09-22T17:54:25.861Z,9.40
2022-09-22T17:56:53.018Z,9.30
2022-09-22T17:59:23.075Z,9.20
2022-09-22T18:01:53.656Z,9.20
2022-09-22T18:04:21.001Z,9.10
2022-09-22T18:06:53.533Z,9.10
2022-09-22T18:09:20.886Z,9.00
2022-09-22T18:11:48.716Z,8.90
2022-09-22T18:14:16.548Z,8.90
2022-09-22T18:16:44.145Z,8.90
2022-09-22T18:19:13.793Z,8.90
2022-09-22T18:21:41.334Z,8.80
2022-09-22T18:24:11.206Z,8.80
2022-09-22T18:26:40.801Z,8.80
2022-09-22T18:29:10.750Z,8.80
2022-09-22T18:31:38.248Z,8.70
2022-09-22T18:34:08.013Z,8.70
2022-09-22T18:36:39.961Z,8.60
2022-09-22T18:39:09.902Z,8.60
2022-09-22T18:41:37.519Z,8.60
2022-09-22T18:44:05.111Z,8.50
2022-09-22T18:46:33.675Z,8.50
2022-09-22T18:49:03.080Z,8.40
2022-09-22T18:51:34.091Z,8.40
2022-09-22T18:54:02.899Z,8.30
2022-09-22T18:56:29.908Z,8.30
2022-09-22T18:58:59.138Z,8.30
2022-09-22T19:01:26.816Z,8.20
2022-09-22T19:03:53.873Z,8.20
2022-09-22T19:06:21.016Z,8.20
2022-09-22T19:08:51.029Z,8.10
2022-09-22T19:11:17.997Z,8.10
2022-09-22T19:13:47.625Z,8.10
2022-09-22T19:16:17.711Z,8.10
2022-09-22T19:18:44.791Z,8.00
2022-09-22T19:21:16.756Z,8.00
2022-09-22T19:23:46.462Z,8.00
2022-09-22T19:26:16.342Z,8.00
2022-09-22T19:28:43.388Z,8.00
2022-09-22T19:31:10.873Z,7.90
2022-09-22T19:33:40.383Z,7.90
2022-09-22T19:36:07.499Z,7.80
2022-09-22T19:38:34.957Z,7.80
2022-09-22T19:41:02.087Z,7.80
2022-09-22T19:43:29.792Z,7.70
2022-09-22T19:45:59.850Z,7.70
2022-09-22T19:48:27.297Z,7.70
2022-09-22T19:50:54.274Z,7.60
2022-09-22T19:53:21.793Z,7.60
2022-09-22T19:55:49.031Z,7.60
2022-09-22T19:58:16.122Z,7.60
2022-09-22T20:00:45.917Z,7.50
2022-09-22T20:03:13.055Z,7.50
2022-09-22T20:05:40.304Z,7.40
2022-09-22T20:08:10.017Z,7.40
2022-09-22T20:10:39.936Z,7.30
2022-09-22T20:13:06.942Z,7.30
2022-09-22T20:15:34.404Z,7.30
2022-09-22T20:18:01.753Z,7.30
2022-09-22T20:20:28.796Z,7.20
2022-09-22T20:23:00.113Z,7.20
2022-09-22T20:25:30.943Z,7.20
2022-09-22T20:27:59.065Z,7.20
2022-09-22T20:30:28.581Z,7.20
2022-09-22T20:32:55.850Z,7.20
2022-09-22T20:35:23.325Z,7.20
2022-09-22T20:37:50.576Z,7.10
2022-09-22T20:40:20.800Z,7.10
2022-09-22T20:42:48.579Z,7.10
2022-09-22T20:45:15.900Z,7.00
2022-09-22T20:47:45.278Z,7.00
2022-09-22T20:50:15.257Z,7.00
2022-09-22T20:52:42.576Z,6.90
2022-09-22T20:55:10.644Z,6.90
2022-09-22T20:57:38.244Z,6.90
2022-09-22T21:00:06.486Z,6.80
2022-09-22T21:02:33.898Z,6.90
2022-09-22T21:05:03.652Z,6.90
2022-09-22T21:07:34.000Z,6.80
2022-09-22T21:10:03.437Z,6.90
2022-09-22T21:12:31.548Z,6.80
2022-09-22T21:14:59.520Z,6.80
2022-09-22T21:17:28.072Z,6.80
2022-09-22T21:19:58.612Z,6.80
2022-09-22T21:22:26.548Z,6.80
2022-09-22T21:24:53.759Z,6.70
2022-09-22T21:27:21.166Z,6.70
2022-09-22T21:29:48.570Z,6.70
2022-09-22T21:32:15.725Z,6.80
2022-09-22T21:34:45.510Z,6.70
2022-09-22T21:37:12.562Z,6.50
2022-09-22T21:39:39.722Z,6.40
2022-09-22T21:42:09.632Z,6.30
2022-09-22T21:44:37.225Z,6.30
2022-09-22T21:47:09.103Z,6.30
2022-09-22T21:49:38.894Z,6.40
2022-09-22T21:52:06.134Z,6.40
2022-09-22T21:54:33.472Z,6.40
2022-09-22T21:57:00.902Z,6.40
2022-09-22T21:59:28.045Z,6.50
2022-09-22T22:01:59.582Z,6.40
2022-09-22T22:04:27.133Z,6.40
2022-09-22T22:06:54.346Z,6.40
2022-09-22T22:09:24.825Z,6.30
2022-09-22T22:11:57.617Z,6.30
2022-09-22T22:14:26.701Z,6.30
2022-09-22T22:16:55.339Z,6.30
2022-09-22T22:19:25.333Z,6.30
2022-09-22T22:21:53.102Z,6.30
2022-09-22T22:24:22.624Z,6.30
2022-09-22T22:26:55.024Z,6.20
2022-09-22T22:29:23.853Z,6.20
2022-09-22T22:31:52.281Z,6.20
2022-09-22T22:34:21.719Z,6.20
2022-09-22T22:36:49.791Z,6.20
2022-09-22T22:39:16.801Z,6.10
2022-09-22T22:41:43.874Z,6.20
2022-09-22T22:44:13.419Z,6.20
2022-09-22T22:46:40.507Z,6.10
2022-09-22T22:49:07.537Z,6.20
2022-09-22T22:51:35.082Z,6.20
2022-09-22T22:54:02.176Z,6.20
2022-09-22T22:56:29.182Z,6.20
2022-09-22T22:58:56.658Z,6.20
2022-09-22T23:01:26.376Z,6.10
2022-09-22T23:03:59.157Z,6.10
2022-09-22T23:06:34.502Z,6.10
2022-09-22T23:09:02.669Z,6.10
2022-09-22T23:11:36.518Z,6.00
2022-09-22T23:14:06.423Z,6.00
2022-09-22T23:16:39.235Z,5.90
2022-09-22T23:19:11.082Z,5.90
2022-09-22T23:21:39.394Z,5.90
2022-09-22T23:24:06.722Z,5.80
2022-09-22T23:26:33.849Z,5.90
2022-09-22T23:29:01.420Z,5.80
2022-09-22T23:31:36.905Z,5.80
2022-09-22T23:34:05.245Z,5.80
2022-09-22T23:36:32.498Z,5.80
2022-09-22T23:39:04.396Z,5.80
2022-09-22T23:41:34.573Z,5.80
2022-09-22T23:44:02.383Z,5.80
2022-09-22T23:46:29.596Z,5.80
2022-09-22T23:49:00.183Z,5.80
2022-09-22T23:51:27.850Z,5.80
2022-09-22T23:53:55.056Z,5.70
2022-09-22T23:56:25.108Z,5.70
2022-09-22T23:58:54.669Z,5.60
